Time;durP1;ratioP1;P1;durP2;ratioP2;P2;SDS_P1;SDS_P2;PMS_P1;PMS_P2;Temp;Humidity;BMP_temperature;BMP_pressure;BME280_temperature;BME280_humidity;BME280_pressure;Samples;Min_cycle;Max_cycle;Signal;HPM_P1;HPM_P2
2022/12/13 00:00:56;;;;;;;3.15;1.50;;;;;;;-2.87;92.05;98431.00;1692102;82;21086;-76
2022/12/13 00:03:24;;;;;;;2.10;1.42;;;;;;;-2.89;92.10;98422.52;1690637;82;20991;-75
2022/12/13 00:06:11;;;;;;;3.92;1.57;;;;;;;-2.88;92.14;98429.33;1684097;84;21053;-75
2022/12/13 00:08:40;;;;;;;4.15;2.30;;;;;;;-2.93;90.67;98424.27;1688085;82;20995;-75
2022/12/13 00:11:11;;;;;;;2.20;1.50;;;;;;;-2.93;91.55;98424.27;1696012;82;21391;-75
2022/12/13 00:13:40;;;;;;;2.52;1.50;;;;;;;-2.94;91.30;98425.98;1707726;81;21096;-75
2022/12/13 00:16:15;;;;;;;2.33;1.90;;;;;;;-2.92;91.72;98426.78;1684090;83;20983;-75
2022/12/13 00:18:43;;;;;;;4.10;1.70;;;;;;;-2.93;91.57;98428.94;1685325;84;21074;-75
2022/12/13 00:21:14;;;;;;;2.35;1.55;;;;;;;-2.92;91.59;98429.34;1673614;84;20962;-75
2022/12/13 00:23:41;;;;;;;1.90;1.55;;;;;;;-2.94;91.57;98425.98;1680991;83;21060;-75
2022/12/13 00:26:15;;;;;;;2.63;2.10;;;;;;;-2.93;92.00;98428.94;1677854;83;21032;-75
2022/12/13 00:28:42;;;;;;;2.00;1.62;;;;;;;-2.93;91.75;98422.55;1677921;82;21046;-75
2022/12/13 00:31:09;;;;;;;1.90;1.45;;;;;;;-2.95;91.26;98423.00;1682780;83;21110;-75
2022/12/13 00:33:38;;;;;;;2.52;1.52;;;;;;;-2.96;91.20;98426.44;1695018;82;21010;-75
2022/12/13 00:36:07;;;;;;;1.92;1.45;;;;;;;-2.94;91.06;98425.98;1689113;82;21549;-75
2022/12/13 00:38:35;;;;;;;1.67;1.12;;;;;;;-2.97;91.05;98415.81;1689807;82;21092;-75
2022/12/13 00:41:18;;;;;;;2.58;1.75;;;;;;;-2.98;90.65;98425.59;1684601;84;21246;-75
2022/12/13 00:43:45;;;;;;;3.30;1.57;;;;;;;-2.98;90.90;98415.38;1682696;83;20986;-75
2022/12/13 00:46:21;;;;;;;2.60;1.10;;;;;;;-2.94;91.57;98420.88;1685878;83;21142;-75
2022/12/13 00:48:51;;;;;;;2.72;1.40;;;;;;;-2.94;92.08;98423.44;1696345;82;20975;-75
2022/12/13 00:51:19;;;;;;;2.10;1.42;;;;;;;-2.90;91.93;98422.11;1689878;84;21558;-75
2022/12/13 00:53:46;;;;;;;1.90;1.60;;;;;;;-2.92;91.54;98434.89;1686241;82;21580;-75
2022/12/13 00:56:24;;;;;;;1.80;1.60;;;;;;;-2.89;91.74;98430.17;1689007;82;20984;-75
2022/12/13 00:58:52;;;;;;;1.27;1.10;;;;;;;-2.86;91.59;98433.95;1684490;84;21035;-75
2022/12/13 01:01:23;;;;;;;1.47;1.20;;;;;;;-2.93;91.21;98439.16;1678390;83;20990;-75
2022/12/13 01:03:52;;;;;;;2.55;1.50;;;;;;;-2.92;90.73;98426.78;1661459;84;21066;-75
2022/12/13 01:06:24;;;;;;;1.82;1.50;;;;;;;-2.88;92.16;98429.33;1660424;84;21642;-75
2022/12/13 01:08:51;;;;;;;1.50;1.40;;;;;;;-2.88;92.24;98425.50;1686218;84;21031;-75
2022/12/13 01:11:18;;;;;;;2.53;1.60;;;;;;;-2.90;92.08;98425.94;1683712;83;21065;-75
2022/12/13 01:13:45;;;;;;;1.52;1.42;;;;;;;-2.93;91.82;98426.39;1677287;83;20973;-75
2022/12/13 01:16:13;;;;;;;1.82;1.50;;;;;;;-2.91;92.03;98437.87;1685698;84;21071;-75
2022/12/13 01:18:41;;;;;;;1.70;1.27;;;;;;;-2.90;91.93;98437.44;1683829;83;21007;-75
2022/12/13 01:21:11;;;;;;;1.37;1.27;;;;;;;-2.96;91.75;98435.38;1664756;84;21108;-75
2022/12/13 01:23:39;;;;;;;1.80;1.50;;;;;;;-3.00;91.89;98431.16;1680494;84;21035;-75
2022/12/13 01:26:15;;;;;;;1.47;1.37;;;;;;;-2.98;92.02;98433.27;1676222;84;21066;-75
2022/12/13 01:28:42;;;;;;;1.37;1.20;;;;;;;-2.90;92.14;98433.61;1675906;85;21077;-75
2022/12/13 01:31:12;;;;;;;1.42;1.25;;;;;;;-2.96;90.89;98430.27;1680025;84;21100;-75
2022/12/13 01:33:40;;;;;;;1.87;1.40;;;;;;;-2.97;91.40;98432.42;1676056;85;21489;-75
2022/12/13 01:36:12;;;;;;;4.87;1.65;;;;;;;-2.95;91.30;98431.94;1674527;84;21046;-75
2022/12/13 01:38:39;;;;;;;1.50;1.17;;;;;;;-2.97;91.45;98433.70;1671125;84;21102;-75
2022/12/13 01:41:07;;;;;;;1.37;1.17;;;;;;;-2.99;91.41;98432.86;1681275;82;21514;-75
2022/12/13 01:43:45;;;;;;;2.22;1.60;;;;;;;-2.98;91.28;98444.75;1685145;84;21047;-75
2022/12/13 01:46:15;;;;;;;3.27;1.40;;;;;;;-2.99;91.32;98430.31;1680961;84;21030;-75
2022/12/13 01:48:55;;;;;;;1.98;1.30;;;;;;;-2.96;91.42;98442.20;1688041;84;20999;-75
2022/12/13 01:51:27;;;;;;;2.22;1.55;;;;;;;-2.95;91.51;98437.05;1679712;83;21084;-75
2022/12/13 01:53:57;;;;;;;3.00;1.50;;;;;;;-2.94;91.21;98437.48;1690766;83;21348;-75
2022/12/13 01:56:29;;;;;;;4.00;1.40;;;;;;;-2.92;91.24;98438.72;1693305;84;21105;-75
2022/12/13 01:58:59;;;;;;;1.50;1.40;;;;;;;-2.94;91.16;98437.48;1691265;84;21197;-75
2022/12/13 02:01:26;;;;;;;2.08;1.07;;;;;;;-2.93;91.21;98445.55;1657309;84;21046;-75
2022/12/13 02:03:53;;;;;;;3.08;1.82;;;;;;;-2.94;90.36;98447.70;1693028;82;21082;-75
2022/12/13 02:06:31;;;;;;;1.75;1.45;;;;;;;-2.93;90.80;98450.66;1683918;82;21699;-75
2022/12/13 02:08:58;;;;;;;1.55;1.40;;;;;;;-2.94;90.50;98451.53;1695257;81;21118;-75
2022/12/13 02:11:26;;;;;;;1.90;1.32;;;;;;;-2.92;92.38;98444.66;1677864;83;21006;-75
2022/12/13 02:13:53;;;;;;;1.95;1.45;;;;;;;-2.90;92.79;98448.93;1682938;83;21068;-75
2022/12/13 02:16:54;;;;;;;3.92;1.80;;;;;;;-2.85;93.13;98442.89;1680672;82;21023;-75
2022/12/13 02:19:41;;;;;;;2.25;1.70;;;;;;;-2.80;93.11;98452.62;1683284;82;21070;-75
2022/12/13 02:23:01;;;;;;;1.85;1.27;;;;;;;-2.78;93.10;98446.19;1688953;83;21073;-75
2022/12/13 02:26:14;;;;;;;1.70;1.57;;;;;;;-2.75;92.34;98444.88;1682922;84;21901;-75
2022/12/13 02:29:08;;;;;;;2.70;1.60;;;;;;;-2.75;92.46;98451.26;1687130;82;21100;-75
2022/12/13 02:32:14;;;;;;;2.22;1.62;;;;;;;-2.74;92.42;98437.64;1687817;82;20997;-75
2022/12/13 02:34:58;;;;;;;2.87;1.45;;;;;;;-2.70;92.59;98426.49;1695728;82;22288;-75
2022/12/13 02:37:33;;;;;;;3.72;2.30;;;;;;;-2.71;92.16;98437.59;1688521;82;21025;-75
2022/12/13 02:40:17;;;;;;;2.05;1.62;;;;;;;-2.72;91.73;98438.44;1693866;82;21560;-75
2022/12/13 02:43:10;;;;;;;2.20;1.65;;;;;;;-2.67;91.56;98443.05;1682898;82;21060;-75
2022/12/13 02:45:53;;;;;;;2.20;1.50;;;;;;;-2.67;91.44;98431.55;1688168;84;21040;-75
2022/12/13 02:48:25;;;;;;;2.17;1.90;;;;;;;-2.62;91.57;98442.55;1685576;83;20960;-75
2022/12/13 02:50:54;;;;;;;2.62;1.60;;;;;;;-2.61;91.45;98436.57;1689739;83;21015;-75
2022/12/13 02:53:23;;;;;;;2.92;1.70;;;;;;;-2.60;90.92;98443.39;1688909;84;20968;-75
2022/12/13 02:55:50;;;;;;;4.12;2.20;;;;;;;-2.57;91.13;98454.84;1697145;82;21078;-75
2022/12/13 02:58:21;;;;;;;1.82;1.40;;;;;;;-2.58;90.98;98441.62;1690698;83;21027;-75
2022/12/13 03:01:31;;;;;;;2.80;1.30;;;;;;;-2.56;91.16;98445.02;1684551;83;21030;-75
2022/12/13 03:04:27;;;;;;;3.17;1.87;;;;;;;-2.54;90.87;98450.95;1664279;84;21020;-76
2022/12/13 03:07:08;;;;;;;3.33;2.23;;;;;;;-2.56;90.66;98442.46;1661603;84;21036;-75
2022/12/13 03:09:54;;;;;;;2.98;1.98;;;;;;;-2.56;90.88;98447.57;1684461;83;21409;-75
2022/12/13 03:15:33;;;;;;;3.15;2.12;;;;;;;-2.53;90.89;98444.97;1681062;83;20987;-75
2022/12/13 03:18:14;;;;;;;2.22;1.57;;;;;;;-2.53;90.90;98450.08;1673306;84;21560;-75
2022/12/13 03:20:39;;;;;;;5.22;2.15;;;;;;;-2.53;90.81;98447.52;1688986;83;21652;-75
2022/12/13 03:23:05;;;;;;;3.58;2.02;;;;;;;-2.53;90.79;98447.52;1688797;84;21027;-75
2022/12/13 03:25:32;;;;;;;3.72;1.90;;;;;;;-2.50;90.91;98439.81;1661218;84;20991;-75
2022/12/13 03:28:00;;;;;;;1.85;1.47;;;;;;;-2.49;90.88;98438.96;1685311;83;21095;-75
2022/12/13 03:30:27;;;;;;;3.15;1.90;;;;;;;-2.51;90.68;98439.41;1691696;83;21030;-75
2022/12/13 03:32:54;;;;;;;1.85;1.37;;;;;;;-2.52;90.71;98436.45;1690717;84;21071;-75
2022/12/13 03:35:20;;;;;;;2.00;1.45;;;;;;;-2.50;90.82;98432.14;1688159;84;21495;-75
2022/12/13 03:37:47;;;;;;;2.42;1.65;;;;;;;-2.50;90.61;98438.53;1682462;83;21524;-75
2022/12/13 03:40:14;;;;;;;2.75;1.80;;;;;;;-2.53;90.55;98437.30;1686469;84;21042;-75
2022/12/13 03:42:41;;;;;;;2.40;1.70;;;;;;;-2.50;90.80;98441.09;1684875;84;21033;-75
2022/12/13 03:45:09;;;;;;;2.30;1.60;;;;;;;-2.47;90.78;98441.03;1669611;84;21077;-75
2022/12/13 03:47:35;;;;;;;2.42;1.92;;;;;;;-2.45;90.73;98436.35;1666038;84;21501;-75
2022/12/13 03:50:02;;;;;;;2.83;1.72;;;;;;;-2.48;90.65;98445.75;1666740;84;21619;-75
2022/12/13 03:52:29;;;;;;;2.45;1.82;;;;;;;-2.50;90.65;98435.97;1667702;84;21073;-75
2022/12/13 03:54:55;;;;;;;2.50;1.40;;;;;;;-2.47;90.69;98438.48;1667555;84;21030;-75
2022/12/13 03:57:22;;;;;;;2.67;1.70;;;;;;;-2.48;90.13;98440.64;1679806;83;21054;-75
2022/12/13 03:59:50;;;;;;;4.00;1.83;;;;;;;-2.49;90.40;98438.13;1701713;81;21567;-75
2022/12/13 04:02:16;;;;;;;2.67;1.77;;;;;;;-2.48;90.66;98438.08;1685095;83;21035;-75
2022/12/13 04:04:43;;;;;;;2.90;1.40;;;;;;;-2.48;90.82;98430.41;1709195;83;21125;-75
2022/12/13 04:07:09;;;;;;;2.05;1.85;;;;;;;-2.46;90.95;98436.80;1707415;82;21124;-75
2022/12/13 04:09:36;;;;;;;2.85;1.87;;;;;;;-2.49;90.62;98433.84;1703566;81;21054;-75
2022/12/13 04:14:47;;;;;;;3.08;1.67;;;;;;;-2.50;90.69;98435.97;1690003;82;21029;-75
2022/12/13 04:17:14;;;;;;;1.52;1.42;;;;;;;-2.50;90.74;98435.97;1692066;83;21000;-75
2022/12/13 04:19:41;;;;;;;7.20;1.87;;;;;;;-2.53;90.48;98437.30;1699485;82;21043;-75
2022/12/13 04:22:07;;;;;;;3.45;1.62;;;;;;;-2.49;90.78;98444.07;1690103;83;21025;-75
2022/12/13 04:24:34;;;;;;;3.75;1.80;;;;;;;-2.51;90.60;98438.13;1691041;82;21026;-75
2022/12/13 04:27:01;;;;;;;1.90;1.30;;;;;;;-2.50;90.52;98448.75;1703326;81;21065;-75
2022/12/13 04:29:29;;;;;;;3.40;1.72;;;;;;;-2.49;90.38;98444.07;1689143;83;21030;-76
2022/12/13 04:31:55;;;;;;;2.12;1.80;;;;;;;-2.49;90.72;98444.07;1688335;83;20979;-75
2022/12/13 04:34:22;;;;;;;3.77;1.70;;;;;;;-2.48;90.51;98447.02;1688353;82;21696;-75
2022/12/13 04:36:49;;;;;;;2.50;1.50;;;;;;;-2.44;90.43;98444.42;1694867;83;21531;-75
2022/12/13 04:39:15;;;;;;;2.45;1.70;;;;;;;-2.50;90.54;98447.48;1688142;82;22321;-75
2022/12/13 04:41:42;;;;;;;2.30;2.00;;;;;;;-2.50;90.79;98443.64;1698054;83;21033;-75
2022/12/13 04:44:09;;;;;;;2.35;1.50;;;;;;;-2.52;90.75;98448.36;1693931;84;21050;-75
2022/12/13 04:46:37;;;;;;;2.72;1.70;;;;;;;-2.54;90.53;98456.07;1697920;84;21088;-75
2022/12/13 04:49:03;;;;;;;2.37;1.72;;;;;;;-2.52;90.89;98447.95;1701432;83;21509;-75
2022/12/13 04:51:30;;;;;;;3.77;1.60;;;;;;;-2.50;90.87;98459.41;1689222;83;20963;-75
2022/12/13 04:53:56;;;;;;;2.55;1.67;;;;;;;-2.50;90.92;98443.64;1687128;83;21110;-75
2022/12/13 04:56:23;;;;;;;2.90;1.87;;;;;;;-2.49;91.44;98451.73;1693132;82;21097;-75
2022/12/13 04:58:49;;;;;;;4.05;1.47;;;;;;;-2.47;91.53;98442.31;1691618;82;21622;-75
2022/12/13 05:01:16;;;;;;;2.50;2.15;;;;;;;-2.45;91.30;98446.58;1684792;84;21034;-75
2022/12/13 05:03:43;;;;;;;2.30;1.83;;;;;;;-2.46;91.31;98450.84;1686045;84;20990;-75
2022/12/13 05:06:12;;;;;;;4.83;2.33;;;;;;;-2.44;91.25;98450.81;1692086;82;21647;-75
2022/12/13 05:08:40;;;;;;;2.42;2.00;;;;;;;-2.44;91.03;98443.14;1686433;82;20995;-75
2022/12/13 05:11:07;;;;;;;2.95;2.00;;;;;;;-2.45;90.84;98447.41;1681067;82;21010;-75
2022/12/13 05:13:34;;;;;;;3.45;1.98;;;;;;;-2.43;90.64;98449.96;1659222;82;21002;-75
2022/12/13 05:16:05;;;;;;;4.77;2.80;;;;;;;-2.50;90.20;98455.14;1691225;82;20968;-75
2022/12/13 05:18:32;;;;;;;2.52;1.52;;;;;;;-2.50;90.42;98447.48;1691936;82;21007;-75
2022/12/13 05:21:08;;;;;;;3.17;1.80;;;;;;;-2.48;90.41;98445.75;1696580;82;21137;-75
2022/12/13 05:23:36;;;;;;;3.35;2.02;;;;;;;-2.49;90.08;98449.19;1683746;84;21002;-75
2022/12/13 05:26:03;;;;;;;4.72;1.87;;;;;;;-2.50;90.29;98450.03;1688919;82;21093;-75
2022/12/13 05:28:30;;;;;;;3.25;1.75;;;;;;;-2.51;90.17;98445.80;1691192;84;21023;-75
2022/12/13 05:31:06;;;;;;;1.45;1.35;;;;;;;-2.51;90.27;98453.47;1680774;82;21047;-75
2022/12/13 05:33:33;;;;;;;2.40;1.80;;;;;;;-2.49;90.33;98451.73;1685520;82;21533;-75
2022/12/13 05:35:59;;;;;;;2.30;1.77;;;;;;;-2.48;90.35;98444.91;1693193;82;21024;-75
2022/12/13 05:38:26;;;;;;;1.85;1.45;;;;;;;-2.48;90.33;98457.25;1687010;82;21078;-75
2022/12/13 05:40:53;;;;;;;4.40;1.92;;;;;;;-2.51;90.27;98445.80;1685632;82;21050;-75
2022/12/13 05:43:19;;;;;;;3.00;1.90;;;;;;;-2.50;90.32;98451.75;1694777;83;21320;-75
2022/12/13 05:45:46;;;;;;;2.95;1.77;;;;;;;-2.49;90.33;98445.35;1694383;84;21486;-75
2022/12/13 05:48:13;;;;;;;3.15;1.90;;;;;;;-2.48;90.35;98448.30;1686760;84;21054;-75
2022/12/13 05:50:39;;;;;;;2.52;1.52;;;;;;;-2.45;90.34;98451.25;1687950;84;21025;-75
2022/12/13 05:53:06;;;;;;;3.53;1.67;;;;;;;-2.43;90.36;98456.35;1685483;84;21011;-75
2022/12/13 05:55:37;;;;;;;2.27;1.50;;;;;;;-2.44;90.32;98452.09;1688171;82;21026;-75
2022/12/13 05:58:04;;;;;;;2.45;1.77;;;;;;;-2.42;90.35;98459.31;1690716;82;21065;-75
2022/12/13 06:00:30;;;;;;;3.35;2.20;;;;;;;-2.41;90.38;98464.38;1689267;84;20974;-75
2022/12/13 06:02:59;;;;;;;3.30;1.97;;;;;;;-2.42;90.29;98461.42;1689205;82;20983;-75
2022/12/13 06:05:25;;;;;;;2.83;1.75;;;;;;;-2.42;90.29;98469.53;1688480;82;21098;-75
2022/12/13 06:07:54;;;;;;;2.67;1.72;;;;;;;-2.44;90.24;98468.70;1688364;82;21134;-75
2022/12/13 06:10:21;;;;;;;3.08;1.90;;;;;;;-2.43;90.30;98467.86;1689024;84;20995;-75
2022/12/13 06:12:48;;;;;;;3.15;2.00;;;;;;;-2.45;90.09;98474.69;1687546;84;21148;-75
2022/12/13 06:15:15;;;;;;;3.35;2.42;;;;;;;-2.45;90.28;98470.42;1682915;82;21097;-75
2022/12/13 06:17:42;;;;;;;3.00;2.15;;;;;;;-2.43;90.29;98476.36;1690011;82;21512;-75
2022/12/13 06:20:10;;;;;;;5.10;2.10;;;;;;;-2.45;90.33;98481.08;1689402;82;21799;-75
2022/12/13 06:22:37;;;;;;;3.60;2.15;;;;;;;-2.45;90.37;98472.14;1689008;84;21067;-75
2022/12/13 06:25:04;;;;;;;3.73;2.23;;;;;;;-2.43;90.31;98475.52;1702176;83;21052;-75
2022/12/13 06:27:31;;;;;;;2.98;1.95;;;;;;;-2.43;90.26;98476.36;1682974;84;21043;-75
2022/12/13 06:29:57;;;;;;;3.40;2.45;;;;;;;-2.42;90.28;98474.64;1684806;82;21575;-75
2022/12/13 06:32:24;;;;;;;6.85;2.50;;;;;;;-2.42;90.20;98477.20;1689282;82;20999;-75
2022/12/13 06:34:51;;;;;;;7.33;3.33;;;;;;;-2.44;90.21;98472.09;1684562;84;21051;-75
2022/12/13 06:37:17;;;;;;;4.05;2.58;;;;;;;-2.43;90.28;98467.86;1683028;84;21003;-75
2022/12/13 06:39:44;;;;;;;2.67;2.30;;;;;;;-2.42;90.23;98486.15;1683512;84;21542;-75
2022/12/13 06:42:18;;;;;;;4.22;2.70;;;;;;;-2.45;90.12;98478.53;1687257;82;21086;-75
2022/12/13 06:44:45;;;;;;;4.62;2.15;;;;;;;-2.45;90.28;98486.20;1682402;82;21021;-76
2022/12/13 06:47:12;;;;;;;4.07;2.17;;;;;;;-2.47;90.19;98488.32;1685014;83;21044;-75
2022/12/13 06:49:41;;;;;;;3.72;2.47;;;;;;;-2.45;90.25;98490.03;1692942;82;21030;-75
2022/12/13 06:52:13;;;;;;;2.95;2.00;;;;;;;-2.45;90.30;98488.75;1690836;82;21554;-76
2022/12/13 06:54:41;;;;;;;3.05;2.00;;;;;;;-2.44;90.25;98492.55;1659996;84;21033;-76
2022/12/13 06:57:10;;;;;;;5.35;2.22;;;;;;;-2.42;90.20;98489.98;1687882;82;21302;-76
2022/12/13 06:59:37;;;;;;;3.58;2.00;;;;;;;-2.43;90.15;98500.65;1688507;82;21638;-76
2022/12/13 07:02:05;;;;;;;4.60;2.90;;;;;;;-2.42;90.12;98496.38;1692291;82;21092;-76
2022/12/13 07:04:32;;;;;;;;;;;;;;;-2.40;90.24;98501.04;1693144;82;20998;-76
2022/12/13 07:07:01;;;;;;;4.37;2.40;;;;;;;-2.39;90.25;98503.55;1689632;83;20182;-75
2022/12/13 07:09:31;;;;;;;4.92;2.65;;;;;;;-2.41;90.24;98509.55;1690513;82;21016;-76
2022/12/13 07:11:59;;;;;;;3.25;1.92;;;;;;;-2.41;90.37;98512.11;1696377;83;21092;-75
2022/12/13 07:14:26;;;;;;;6.30;2.27;;;;;;;-2.37;90.37;98516.33;1699977;83;20990;-75
2022/12/13 07:16:52;;;;;;;3.83;2.10;;;;;;;-2.36;90.34;98523.13;1696530;83;20986;-76
2022/12/13 07:19:19;;;;;;;2.60;1.87;;;;;;;-2.35;90.29;98519.69;1694176;82;21536;-76
2022/12/13 07:21:46;;;;;;;2.40;1.77;;;;;;;-2.35;90.20;98524.80;1678459;83;21048;-75
2022/12/13 07:24:12;;;;;;;4.72;2.17;;;;;;;-2.38;90.02;98529.95;1686495;83;21015;-75
2022/12/13 07:26:39;;;;;;;4.22;2.83;;;;;;;-2.38;90.22;98524.84;1679952;83;21016;-74
2022/12/13 07:29:05;;;;;;;3.47;2.55;;;;;;;-2.38;90.18;98537.63;1687731;82;21553;-75
2022/12/13 07:31:35;;;;;;;6.03;2.70;;;;;;;-2.35;90.21;98535.02;1687425;82;21609;-75
2022/12/13 07:34:02;;;;;;;6.42;2.83;;;;;;;-2.36;90.20;98534.62;1696117;83;21102;-75
2022/12/13 07:36:29;;;;;;;7.03;3.58;;;;;;;-2.36;90.13;98541.86;1685434;82;20988;-75
2022/12/13 07:38:57;;;;;;;6.40;3.58;;;;;;;-2.38;89.98;98547.85;1694139;82;21125;-75
2022/12/13 07:41:25;;;;;;;6.35;3.17;;;;;;;-2.41;89.99;98542.78;1690690;82;21085;-75
2022/12/13 07:43:54;;;;;;;5.45;2.77;;;;;;;-2.39;90.09;98542.34;1689948;83;21476;-75
2022/12/13 07:46:21;;;;;;;4.65;2.50;;;;;;;-2.34;90.13;98552.08;1691573;83;21027;-75
2022/12/13 07:48:47;;;;;;;5.70;2.50;;;;;;;-2.30;90.28;98548.59;1698009;83;21081;-75
2022/12/13 07:51:14;;;;;;;4.17;2.72;;;;;;;-2.24;90.24;98551.09;1698912;82;21105;-75
2022/12/13 07:53:41;;;;;;;3.98;2.50;;;;;;;-2.20;90.25;98550.16;1693782;83;21079;-75
2022/12/13 07:56:10;;;;;;;4.67;3.17;;;;;;;-2.15;90.14;98549.66;1686095;84;21080;-75
2022/12/13 07:58:38;;;;;;;7.05;3.85;;;;;;;-2.13;90.14;98556.02;1690751;83;21103;-75
2022/12/13 08:01:10;;;;;;;;;;;;;;;-2.13;90.00;98548.34;1707707;83;21018;-75
2022/12/13 08:03:38;;;;;;;4.72;2.62;;;;;;;-2.13;90.01;98551.77;1703693;83;20504;-75
2022/12/13 08:06:08;;;;;;;;;;;;;;;-2.08;90.10;98557.64;1706024;83;21095;-75
2022/12/13 08:08:36;;;;;;;6.60;2.98;;;;;;;-2.07;90.10;98561.91;1704512;83;20129;-75
2022/12/13 08:11:07;;;;;;;6.97;2.60;;;;;;;-2.01;90.23;98567.80;1705175;83;20973;-75
2022/12/13 08:13:34;;;;;;;6.45;3.70;;;;;;;-1.98;90.17;98568.59;1697130;84;21016;-75
2022/12/13 08:16:07;;;;;;;7.55;3.92;;;;;;;-1.93;90.22;98565.95;1705648;83;21003;-75
2022/12/13 08:18:34;;;;;;;6.70;3.40;;;;;;;-1.89;90.16;98572.72;1705055;83;21563;-75
2022/12/13 08:21:03;;;;;;;5.97;2.70;;;;;;;-1.86;90.16;98570.95;1703631;83;21540;-75
2022/12/13 08:23:33;;;;;;;4.83;2.15;;;;;;;-1.81;90.24;98584.52;1708925;83;21037;-75
2022/12/13 08:26:02;;;;;;;7.10;2.77;;;;;;;-1.77;90.08;98581.47;1698374;84;21112;-76
2022/12/13 08:28:31;;;;;;;4.00;2.45;;;;;;;-1.75;90.16;98593.81;1703297;83;21074;-75
2022/12/13 08:31:10;;;;;;;5.12;2.80;;;;;;;-1.74;89.95;98589.09;1702532;83;21008;-75
2022/12/13 08:33:38;;;;;;;5.47;3.22;;;;;;;-1.73;90.08;98581.85;1699775;83;21087;-75
2022/12/13 08:36:11;;;;;;;6.53;3.25;;;;;;;-1.67;90.20;98584.30;1700897;83;20938;-75
2022/12/13 08:38:37;;;;;;;4.50;2.40;;;;;;;-1.61;90.21;98591.87;1701510;83;21506;-75
2022/12/13 08:41:05;;;;;;;4.35;2.58;;;;;;;-1.56;89.97;98588.41;1700431;83;21065;-75
2022/12/13 08:43:32;;;;;;;3.58;2.30;;;;;;;-1.51;89.78;98593.00;1699007;83;22539;-75
2022/12/13 08:45:59;;;;;;;6.20;3.52;;;;;;;-1.48;89.68;98599.37;1700710;84;21138;-75
2022/12/13 08:48:26;;;;;;;6.70;2.80;;;;;;;-1.50;89.33;98594.70;1702828;83;21004;-75
2022/12/13 08:50:52;;;;;;;4.55;2.92;;;;;;;-1.56;88.01;98603.78;1704622;83;21028;-75
2022/12/13 08:53:20;;;;;;;2.83;1.93;;;;;;;-1.61;89.00;98602.12;1705650;84;21127;-76
2022/12/13 08:55:46;;;;;;;;;;;;;;;-1.52;89.67;98597.72;1708874;83;21079;-75
2022/12/13 08:58:13;;;;;;;3.87;1.85;;;;;;;-1.54;88.33;98607.13;1705463;84;20178;-75
2022/12/13 09:00:41;;;;;;;5.73;2.10;;;;;;;-1.52;88.81;98604.12;1698416;83;21068;-75
2022/12/13 09:03:08;;;;;;;3.02;1.90;;;;;;;-1.49;89.17;98598.95;1700334;84;21008;-75
2022/12/13 09:05:36;;;;;;;3.45;1.80;;;;;;;-1.47;89.29;98609.58;1700426;83;21058;-75
2022/12/13 09:08:04;;;;;;;2.62;1.50;;;;;;;-1.44;88.67;98614.64;1699188;83;20962;-75
2022/12/13 09:10:31;;;;;;;4.65;1.22;;;;;;;-1.42;88.02;98623.59;1699437;83;21022;-75
2022/12/13 09:13:00;;;;;;;4.85;1.82;;;;;;;-1.34;88.50;98620.47;1699615;83;20999;-75
2022/12/13 09:15:29;;;;;;;2.52;1.45;;;;;;;-1.23;89.37;98618.57;1653726;84;20943;-75
2022/12/13 09:17:55;;;;;;;3.80;1.60;;;;;;;-1.18;88.27;98629.55;1700184;81;21596;-75
2022/12/13 09:20:22;;;;;;;3.30;1.90;;;;;;;-1.16;88.86;98621.41;1698869;83;21595;-75
2022/12/13 09:22:49;;;;;;;3.30;2.17;;;;;;;-1.07;89.32;98628.53;1649826;84;21013;-75
2022/12/13 09:25:17;;;;;;;6.72;2.70;;;;;;;-1.07;89.32;98628.53;1703674;81;21408;-75
2022/12/13 09:27:44;;;;;;;6.85;3.17;;;;;;;-1.01;89.42;98628.41;1706729;83;21514;-76
2022/12/13 09:30:11;;;;;;;8.45;3.15;;;;;;;-0.94;89.51;98632.57;1702741;83;20990;-75
2022/12/13 09:32:40;;;;;;;;;;;;;;;-0.95;89.36;98626.61;1690313;82;21073;-75
2022/12/13 09:35:08;;;;;;;5.87;3.15;;;;;;;-0.96;89.22;98626.62;1679978;82;20179;-75
2022/12/13 09:37:37;;;;;;;6.20;3.20;;;;;;;-0.98;89.28;98633.48;1687476;82;22399;-75
2022/12/13 09:40:05;;;;;;;5.10;2.90;;;;;;;-0.93;89.87;98634.25;1679602;82;21088;-75
2022/12/13 09:42:34;;;;;;;7.85;3.47;;;;;;;-0.84;90.11;98631.54;1683410;82;21057;-74
2022/12/13 09:45:05;;;;;;;5.53;3.15;;;;;;;-0.79;90.23;98630.16;1684513;84;21175;-74
2022/12/13 09:47:39;;;;;;;4.60;3.12;;;;;;;-0.72;90.35;98626.17;1687286;82;21511;-74
2022/12/13 09:50:23;;;;;;;9.20;4.25;;;;;;;-0.62;90.28;98623.42;1687302;82;21020;-75
2022/12/13 09:52:49;;;;;;;7.00;3.85;;;;;;;-0.57;90.07;98629.30;1700208;81;21077;-75
2022/12/13 09:55:33;;;;;;;5.92;3.60;;;;;;;-0.52;90.07;98624.94;1668358;83;21040;-75
2022/12/13 09:58:08;;;;;;;6.12;3.27;;;;;;;-0.43;89.58;98632.44;1673748;83;21091;-74
2022/12/13 10:00:36;;;;;;;7.25;4.05;;;;;;;-0.43;89.54;98627.30;1675257;83;21101;-75
2022/12/13 10:03:03;;;;;;;6.87;4.37;;;;;;;-0.39;89.24;98634.08;1693312;83;20956;-75
2022/12/13 10:05:38;;;;;;;6.55;3.70;;;;;;;-0.39;89.24;98634.08;1675457;84;20973;-75
2022/12/13 10:08:09;;;;;;;5.47;3.22;;;;;;;-0.40;89.19;98634.94;1683794;83;20948;-75
2022/12/13 10:10:37;;;;;;;8.23;3.65;;;;;;;-0.44;89.14;98635.05;1684441;83;21084;-74
2022/12/13 10:13:44;;;;;;;6.72;3.60;;;;;;;-0.47;89.20;98636.78;1686538;83;21059;-74
2022/12/13 10:16:19;;;;;;;6.67;3.55;;;;;;;-0.37;89.42;98650.26;1679244;83;20984;-74
2022/12/13 10:18:46;;;;;;;8.35;4.10;;;;;;;-0.21;89.90;98637.13;1682416;83;21048;-74
2022/12/13 10:21:35;;;;;;;5.73;4.13;;;;;;;-0.08;89.99;98643.70;1676680;83;20998;-75
2022/12/13 10:24:24;;;;;;;6.62;3.90;;;;;;;-0.04;89.90;98651.28;1669321;84;21031;-74
2022/12/13 10:26:50;;;;;;;6.80;3.83;;;;;;;-0.05;89.64;98648.77;1685201;84;21490;-75
2022/12/13 10:29:18;;;;;;;8.33;4.17;;;;;;;-0.15;89.34;98649.82;1690584;82;21510;-75
2022/12/13 10:31:51;;;;;;;6.37;3.98;;;;;;;-0.13;89.62;98649.36;1674707;83;21096;-75
2022/12/13 10:34:26;;;;;;;7.53;4.15;;;;;;;-0.15;89.45;98646.81;1693431;81;21080;-75
2022/12/13 10:36:53;;;;;;;5.20;3.55;;;;;;;-0.15;89.57;98649.82;1697320;82;21563;-75
2022/12/13 10:39:42;;;;;;;4.87;3.25;;;;;;;-0.15;89.47;98657.52;1678021;83;21086;-75
2022/12/13 10:42:16;;;;;;;5.72;3.10;;;;;;;-0.19;89.20;98650.78;1681755;83;21090;-75
2022/12/13 10:44:43;;;;;;;8.80;4.15;;;;;;;-0.31;89.00;98654.00;1680002;84;21096;-75
2022/12/13 10:47:22;;;;;;;12.23;5.35;;;;;;;-0.31;89.16;98645.03;1682820;83;20946;-75
2022/12/13 10:49:58;;;;;;;14.40;6.42;;;;;;;-0.27;89.26;98649.20;1666397;83;21592;-74
2022/12/13 10:52:32;;;;;;;19.40;7.33;;;;;;;-0.30;89.14;98654.40;1697125;83;20979;-75
2022/12/13 10:55:04;;;;;;;14.83;5.97;;;;;;;-0.34;89.05;98639.09;1696156;83;21645;-75
2022/12/13 10:57:32;;;;;;;7.80;3.95;;;;;;;-0.39;88.91;98644.33;1699510;82;20999;-75
2022/12/13 10:59:58;;;;;;;5.30;2.77;;;;;;;-0.46;88.75;98650.45;1698832;83;21116;-75
2022/12/13 11:02:35;;;;;;;5.27;2.30;;;;;;;-0.57;88.57;98652.37;1696272;83;20976;-74
2022/12/13 11:05:29;;;;;;;5.33;2.47;;;;;;;-0.68;88.69;98643.61;1688706;82;21030;-75
2022/12/13 11:08:14;;;;;;;3.87;2.35;;;;;;;-0.60;88.83;98660.97;1683058;84;21031;-75
2022/12/13 11:10:42;;;;;;;3.55;2.22;;;;;;;-0.58;88.29;98662.23;1690238;82;20975;-75
2022/12/13 11:13:14;;;;;;;4.55;2.80;;;;;;;-0.62;88.08;98659.31;1695554;82;21031;-75
2022/12/13 11:15:40;;;;;;;4.53;2.60;;;;;;;-0.77;87.94;98644.63;1693043;82;21126;-75
2022/12/13 11:18:12;;;;;;;4.90;2.77;;;;;;;-0.70;88.45;98662.88;1681259;82;21063;-75
2022/12/13 11:20:44;;;;;;;4.85;2.85;;;;;;;-0.84;87.59;98661.02;1683297;83;22256;-75
2022/12/13 11:23:39;;;;;;;5.62;2.20;;;;;;;-0.95;87.61;98669.33;1684015;84;20988;-75
2022/12/13 11:26:10;;;;;;;3.55;2.10;;;;;;;-0.97;87.91;98663.38;1686230;83;21470;-75
2022/12/13 11:29:01;;;;;;;2.95;1.70;;;;;;;-1.19;86.60;98673.14;1685980;82;21077;-75
2022/12/13 11:31:42;;;;;;;2.87;1.62;;;;;;;-1.34;85.72;98681.93;1685182;82;20969;-75
2022/12/13 11:34:19;;;;;;;3.90;1.37;;;;;;;-1.42;84.78;98678.64;1634947;85;21059;-74
2022/12/13 11:37:12;;;;;;;;;;;;;;;-1.33;85.66;98684.89;1638419;85;21573;-75
2022/12/13 11:39:44;;;;;;;2.17;1.10;;;;;;;-1.41;84.04;98677.76;1633926;87;20639;-75
2022/12/13 11:42:33;;;;;;;1.80;1.05;;;;;;;-1.42;85.00;98692.72;1634181;86;21034;-75
2022/12/13 11:45:20;;;;;;;1.52;1.00;;;;;;;-1.53;81.89;98688.20;1630858;86;21045;-75
2022/12/13 11:48:09;;;;;;;5.15;1.27;;;;;;;-1.61;82.76;98695.55;1632635;87;21023;-75
2022/12/13 11:50:44;;;;;;;2.35;1.30;;;;;;;-1.64;82.86;98684.08;1633581;85;21060;-75
2022/12/13 11:53:30;;;;;;;2.08;0.90;;;;;;;-1.55;83.62;98687.38;1638412;85;21543;-75
2022/12/13 11:56:33;;;;;;;2.55;1.20;;;;;;;-1.55;84.30;98682.25;1632684;85;21009;-75
2022/12/13 11:59:22;;;;;;;1.05;0.93;;;;;;;-1.59;82.15;98689.98;1632728;87;21015;-75